Here is the Quick Look data you requested

The Data originates at the National Weather Service, and is made available here by the UAlbany Department of Atmospheric and Environmental Sciences

Surface Observations

K2DP 161855Z AUTO 21014G19KT 10SM SCT029 33/27 A2993 RMK AO2 SLP142 T03310271 $=
KACZ 161845Z AUTO 22006KT 10SM SCT044 34/26 A2996 RMK AO2 T03400256=
KAKH 161854Z AUTO 21006KT 10SM FEW050 SCT080 BKN110 33/21 A2995 RMK AO2 LTG
 DSNT E SLP133 T03330211=
KASJ 161845Z AUTO 19007KT 10SM SCT035 33/25 A2991 RMK AO2 T03260246=
KAVL 161854Z 19011KT 10SM VCTS SCT090 BKN120 28/22 A3006 RMK AO2 LTG DSNT S
 RAB14E37 SLP149 P0000 T02830222=
KBUY 161854Z AUTO 18008KT 10SM CLR 34/23 A2993 RMK AO2 SLP128 T03390228=
KCLT 161852Z 22006KT 10SM SCT055TCU SCT250 34/22 A2995 RMK AO2 LTG DSNT NE
 SLP145 CB DSNT NE AND NW TCU NW-N AND DSNT S-SW AND NW T03440217=
KDPL 161845Z AUTO 22008KT 7SM BKN040 BKN046 34/25 A2996 RMK AO2=
KECG 161854Z 22012G21KT 10SM CLR 33/25 A2992 RMK AO2 SLP130 T03330250=
KEDE 161850Z AUTO 22011KT 10SM CLR 34/29 A2993 RMK AO2 T03430292=
KEQY 161853Z AUTO 20007KT 140V230 10SM CLR 34/23 A2995 RMK AO2 LTG DSNT N
 SLP135 T03390228=
KEWN 161854Z 19011G20KT 10SM FEW039 SCT055 34/27 A2996 RMK AO2 SLP145 T03440267=
KEXX 161845Z AUTO 22006KT 10SM CLR 34/22 A2995 RMK AO2 T03400224=
KFAY 161853Z 23009G21KT 10SM CLR 36/22 A2993 RMK AO2 SLP129 T03560222=
KFBG 161855Z AUTO 17011KT 10SM CLR 35/22 A2991 RMK AO2 SLP128 T03540216 $=
KFQD 161845Z AUTO 00000KT 10SM SCT120 31/20 A2999 RMK AO2 LTG DSNT N AND W=
KGEV 161845Z AUTO 17006KT 10SM VCTS SCT080 BKN090 OVC110 22/19 A3013 RMK AO2
 LTG DSNT SE THRU SW T02220187=
KGSB 161855Z 22010KT 10SM SCT050 BKN200 35/23 A2990 RMK AO2A SLP127 T03540227 $=
KGSO 161854Z 24007KT 10SM SCT050 SCT150 OVC250 33/21 A2994 RMK AO2 SLP123
 T03330211 $=
KHBI 161845Z AUTO 20007G15KT 10SM CLR 34/22 A2997 RMK AO2 T03350216=
KHFF 161855Z AUTO 24010KT 10SM SCT060 37/21 A2991 RMK AO2 LTG DSNT SW-W SLP126
 T03690214 $=
KHKY 161853Z 19006G16KT 10SM FEW050 SCT060 BKN090 34/21 A2996 RMK AO2 LTG DSNT
 N AND NW SLP117 T03390206=
KHRJ 161850Z AUTO 19008KT 10SM CLR 34/25 A2994 RMK AO2 T03410245=
KHSE 161851Z AUTO 22009G16KT 8SM CLR 31/27 A2998 RMK AO2 SLP153 T03060272=
KILM 161853Z 19011G20KT 10SM FEW037 34/24 A2998 RMK AO2 SLP150 T03390239=
KINT 161854Z 19008G15KT 10SM CLR 35/19 A2995 RMK AO2 LTG DSNT NW SLP127
 T03500194=
KIPJ 161845Z AUTO 24006KT 10SM SCT050 34/22 A2996 RMK AO2 T03390219=
KISO 161856Z 20012KT 10SM CLR 35/24 A2995=
KJNX 161845Z AUTO 22007G16KT 10SM CLR 33/25 A2994 RMK AO2=
KJQF 161850Z 21008KT 10SM BKN060 36/19 A2996=
KLBT 161856Z AUTO 22012G18KT 10SM CLR 38/22 A2994 RMK AO2 LTG DSNT SW SLP135
 T03780222=
KMEB 161852Z AUTO 20011G17KT 10SM CLR 34/24 A2994 RMK AO2 LTG DSNT S SLP137
 T03440244=
KMQI 161845Z AUTO 22013G18KT 10SM BKN033 BKN042 33/26 A2995 RMK AO2 T03300260=
KMRH 161858Z AUTO 21015G24KT 10SM CLR 32/26 A2999 RMK AO2 PK WND 21026/1811
 SLP154 T03220261=
KMRN 161845Z AUTO 31007G15KT 10SM -RA SCT031 SCT055 BKN100 28/22 A3000 RMK AO2
 T02750223=
KNCA 161856Z 19010G19KT 10SM SCT030 33/26 A2996 RMK AO2 SLP147 T03280261=
KNJM 161857Z AUTO 21018G25KT 6SM HZ CLR 31/26 A2999 RMK AO2 PK WND 21028/1822
 SLP158 T03110261=
KNKT 161856Z 19011G21KT 10SM FEW025 32/26 A2998 RMK AO2 SLP148 T03170261=
KOAJ 161856Z 22012KT 10SM SCT042 34/26 A2996 RMK AO2 SLP148 T03440256 $=
KOCW 161900Z AUTO 20011G15KT 170V230 10SM CLR 34/24 A2994 RMK AO2 T03410237=
KPGV 161845Z AUTO 22014G20KT 7SM CLR 35/23 A2993 RMK AO2=
KPOB 161855Z 20011G20KT 10SM FEW060 SCT080 SCT250 36/21 A2991 RMK AO2A SLP128
 T03580212 VISNO RWY05 $=
KRDU 161851Z 21008KT 10SM FEW045 FEW150 BKN250 35/24 A2993 RMK AO2 SLP129
 T03500244=
KRUQ 161845Z AUTO 14004KT 10SM CLR 33/23 A2995 RMK AO2 T03280225=
KRWI 161853Z AUTO 20011G19KT 10SM CLR 34/23 A2992 RMK AO2 SLP131 T03440228=
KSOP 161856Z AUTO 17010KT 10SM BKN060 BKN085 34/23 A2994 RMK AO2 SLP139
 T03440228=
KSVH 161845Z AUTO 21006KT 10SM CLR 35/20 A2997 RMK AO2 T03490201=
KTDF 161845Z AUTO 19009KT 150V210 10SM CLR 33/22 A2995 RMK AO2=
KTNB 161855Z AUTO 17003KT 10SM SCT085 23/21 A2995 RMK AO2 P0005 T02320210=
KUKF 161850Z AUTO 31008KT 10SM -RA SCT047 BKN055 OVC080 23/20 A3004 RMK AO2
 P0002=
KVUJ 161845Z AUTO 20011G16KT 10SM VCTS CLR 34/24 A2999 RMK AO2 LTG DSNT E AND W
 T03420235=